ISR715 LLBG-LBWN
Flight info
| Callsign | ISR715 |
|---|---|
| Flight time | N/A |
| Altitude | 38000 |
| Route | DAFNA DCT VELOX N71 DESPO DCT VOLBE DCT VESAR UB545 MUT UL619 MAKOL DCT IVGOT |
| Aircraft | A320/M-SDE2FGIJ1LORVWY/SB1 |
Departure
| Time | 2026-05-05 06:51 |
|---|---|
| Airport | Ben Gurion International Airport (LLBG) |
Arrival
| Time | N/A |
|---|---|
| Airport | Varna Airport (LBWN) |
| Time | Latitude | Longitude | Altitude | Speed | Heading |
|---|---|---|---|---|---|
| 2026-05-05 06:38 | 32.00004 | 34.87717 | 120 ft | 0 kts | 120° |
| 2026-05-05 06:41 | 32.00015 | 34.87694 | 120 ft | 4 kts | 121° |
| 2026-05-05 06:41 | 32.00029 | 34.87666 | 120 ft | 4 kts | 117° |
| 2026-05-05 06:41 | 32.00038 | 34.87638 | 120 ft | 4 kts | 86° |
| 2026-05-05 06:41 | 32.00028 | 34.87619 | 120 ft | 4 kts | 31° |
| 2026-05-05 06:42 | 32.00018 | 34.87611 | 120 ft | 2 kts | 31° |
| 2026-05-05 06:42 | 32.00041 | 34.87627 | 120 ft | 4 kts | 30° |
| 2026-05-05 06:42 | 32.00064 | 34.87643 | 120 ft | 4 kts | 31° |
| 2026-05-05 06:42 | 32.00087 | 34.87660 | 120 ft | 4 kts | 32° |
| 2026-05-05 06:43 | 32.00110 | 34.87677 | 118 ft | 4 kts | 33° |
| 2026-05-05 06:43 | 32.00115 | 34.87681 | 120 ft | 3 kts | 33° |
| 2026-05-05 06:45 | 32.00119 | 34.87683 | 120 ft | 2 kts | 33° |
| 2026-05-05 06:45 | 32.00135 | 34.87694 | 116 ft | 4 kts | 25° |
| 2026-05-05 06:45 | 32.00165 | 34.87714 | 116 ft | 7 kts | 31° |
| 2026-05-05 06:45 | 32.00219 | 34.87753 | 119 ft | 11 kts | 32° |
| 2026-05-05 06:46 | 32.00301 | 34.87813 | 118 ft | 16 kts | 31° |
| 2026-05-05 06:46 | 32.00401 | 34.87886 | 117 ft | 18 kts | 31° |
| 2026-05-05 06:46 | 32.00499 | 34.87954 | 120 ft | 10 kts | 26° |
| 2026-05-05 06:46 | 32.00562 | 34.87927 | 120 ft | 11 kts | 326° |
| 2026-05-05 06:47 | 32.00636 | 34.87952 | 118 ft | 9 kts | 32° |
| 2026-05-05 06:47 | 32.00650 | 34.87963 | 119 ft | 4 kts | 32° |
| 2026-05-05 06:47 | 32.00701 | 34.88000 | 119 ft | 13 kts | 30° |
| 2026-05-05 06:47 | 32.00785 | 34.88061 | 120 ft | 15 kts | 32° |
| 2026-05-05 06:48 | 32.00891 | 34.88137 | 118 ft | 22 kts | 31° |
| 2026-05-05 06:48 | 32.01030 | 34.88239 | 119 ft | 25 kts | 32° |
| 2026-05-05 06:48 | 32.01168 | 34.88337 | 120 ft | 24 kts | 31° |
| 2026-05-05 06:48 | 32.01308 | 34.88457 | 119 ft | 26 kts | 43° |
| 2026-05-05 06:49 | 32.01418 | 34.88615 | 117 ft | 25 kts | 57° |
| 2026-05-05 06:49 | 32.01486 | 34.88797 | 117 ft | 23 kts | 73° |
| 2026-05-05 06:49 | 32.01519 | 34.88992 | 116 ft | 24 kts | 79° |
| 2026-05-05 06:49 | 32.01560 | 34.89154 | 120 ft | 13 kts | 36° |
| 2026-05-05 06:50 | 32.01655 | 34.89149 | 119 ft | 15 kts | 351° |
| 2026-05-05 06:50 | 32.01746 | 34.89095 | 119 ft | 16 kts | 280° |
| 2026-05-05 06:50 | 32.01740 | 34.89045 | 120 ft | 1 kts | 259° |
| 2026-05-05 06:50 | 32.01718 | 34.88907 | 119 ft | 44 kts | 259° |
| 2026-05-05 06:51 | 32.01623 | 34.88291 | 121 ft | 106 kts | 259° |
| 2026-05-05 06:51 | 32.01463 | 34.87242 | 123 ft | 152 kts | 261° |
| 2026-05-05 06:51 | 32.01259 | 34.85924 | 370 ft | 170 kts | 258° |
| 2026-05-05 06:51 | 32.01012 | 34.84569 | 1036 ft | 168 kts | 256° |
| 2026-05-05 06:52 | 32.00742 | 34.83242 | 1769 ft | 165 kts | 255° |
| 2026-05-05 06:52 | 32.00469 | 34.81943 | 2229 ft | 179 kts | 256° |
| 2026-05-05 06:52 | 32.00459 | 34.81894 | 2240 ft | 179 kts | 256° |
| 2026-05-05 06:53 | 32.00291 | 34.81142 | 2725 ft | 0 kts | 256° |
| 2026-05-05 06:53 | 32.00088 | 34.80147 | 2936 ft | 172 kts | 255° |
| 2026-05-05 06:53 | 31.99850 | 34.78958 | 3152 ft | 184 kts | 269° |
| 2026-05-05 06:54 | 31.99729 | 34.77952 | 5206 ft | 73 kts | 257° |
| 2026-05-05 06:54 | 31.99670 | 34.77587 | 5267 ft | 66 kts | 249° |